Time;durP1;ratioP1;P1;durP2;ratioP2;P2;SDS_P1;SDS_P2;PMS_P1;PMS_P2;Temp;Humidity;BMP_temperature;BMP_pressure;BME280_temperature;BME280_humidity;BME280_pressure;Samples;Min_cycle;Max_cycle;Signal;HPM_P1;HPM_P2
2023/05/13 07:26:39;;;;;;;;;59.75;47.25;;;;;;;;5597245;22;33511;-71
2023/05/13 07:29:05;;;;;;;;;60.25;49.25;;;;;;;;6254558;22;31024;-73
2023/05/13 07:31:30;;;;;;;;;64.00;49.00;;;;;;;;6255313;22;31349;-73
2023/05/13 07:33:55;;;;;;;;;58.50;47.00;;;;;;;;6254878;22;30961;-79
2023/05/13 07:36:21;;;;;;;;;60.75;49.25;;;;;;;;6227660;22;31364;-73
2023/05/13 07:38:46;;;;;;;;;59.75;49.50;;;;;;;;6255356;22;30931;-77
2023/05/13 07:41:11;;;;;;;;;48.25;40.50;;;;;;;;6254731;22;31742;-77
2023/05/13 07:43:39;;;;;;;;;60.50;49.50;;;;;;;;6254492;22;31679;-75
2023/05/13 07:46:04;;;;;;;;;53.50;45.25;;;;;;;;6227790;22;31185;-77
2023/05/13 07:48:30;;;;;;;;;59.25;48.50;;;;;;;;6226707;22;31531;-74
2023/05/13 07:50:56;;;;;;;;;60.50;48.50;;;;;;;;6254149;22;31331;-75
2023/05/13 07:53:22;;;;;;;;;62.00;49.75;;;;;;;;6253977;22;31392;-74
2023/05/13 07:55:47;;;;;;;;;53.00;42.75;;;;;;;;6253435;22;31204;-74
2023/05/13 07:58:12;;;;;;;;;57.00;47.00;;;;;;;;6253763;22;31391;-74
2023/05/13 08:00:38;;;;;;;;;53.50;43.75;;;;;;;;6253295;22;31777;-73
2023/05/13 08:03:03;;;;;;;;;51.25;41.75;;;;;;;;6253587;22;31392;-73
2023/05/13 08:05:28;;;;;;;;;63.00;49.75;;;;;;;;6253735;22;31016;-71
2023/05/13 08:07:53;;;;;;;;;56.25;46.25;;;;;;;;6252512;22;31157;-71
2023/05/13 08:10:19;;;;;;;;;61.00;49.00;;;;;;;;6253947;22;31055;-72
2023/05/13 08:12:49;;;;;;;;;60.25;48.75;;;;;;;;6252865;22;31298;-73
2023/05/13 08:15:15;;;;;;;;;62.00;50.75;;;;;;;;6226831;22;31012;-71
2023/05/13 08:17:41;;;;;;;;;58.50;48.25;;;;;;;;6253497;22;31325;-71
2023/05/13 08:20:06;;;;;;;;;58.50;47.75;;;;;;;;6254798;22;31192;-72
2023/05/13 08:22:31;;;;;;;;;59.50;49.50;;;;;;;;6255254;22;31490;-72
2023/05/13 08:24:59;;;;;;;;;60.75;48.50;;;;;;;;6255359;22;31471;-72
2023/05/13 08:27:25;;;;;;;;;58.50;48.00;;;;;;;;6254061;22;31383;-72
2023/05/13 08:29:50;;;;;;;;;63.25;49.50;;;;;;;;6227381;22;33535;-72
2023/05/13 08:32:15;;;;;;;;;63.75;47.50;;;;;;;;6254991;22;30994;-72
2023/05/13 08:34:40;;;;;;;;;59.50;46.75;;;;;;;;6254478;22;30932;-71
2023/05/13 08:37:05;;;;;;;;;56.50;46.75;;;;;;;;6254756;22;31008;-73
2023/05/13 08:39:31;;;;;;;;;63.00;49.75;;;;;;;;6254686;22;31180;-73
2023/05/13 08:41:56;;;;;;;;;61.50;48.25;;;;;;;;6254989;22;31062;-74
2023/05/13 08:44:27;;;;;;;;;65.50;49.00;;;;;;;;6255235;22;31218;-72
2023/05/13 08:46:56;;;;;;;;;60.50;48.25;;;;;;;;6254646;22;30992;-72
2023/05/13 08:49:21;;;;;;;;;61.50;50.50;;;;;;;;6254626;22;31805;-72
2023/05/13 08:51:47;;;;;;;;;64.25;51.00;;;;;;;;6255063;22;31046;-72
2023/05/13 08:54:12;;;;;;;;;57.50;48.00;;;;;;;;6254155;22;31113;-70
2023/05/13 08:56:37;;;;;;;;;59.25;48.25;;;;;;;;6255171;22;31023;-72
2023/05/13 08:59:02;;;;;;;;;60.25;47.50;;;;;;;;6257139;22;31904;-74
2023/05/13 09:01:29;;;;;;;;;62.75;48.25;;;;;;;;6281414;22;8763;-74
2023/05/13 09:03:58;;;;;;;;;64.25;50.50;;;;;;;;6280892;22;8744;-73
2023/05/13 09:06:24;;;;;;;;;60.00;49.25;;;;;;;;6252102;22;11549;-74
2023/05/13 09:08:49;;;;;;;;;62.00;48.00;;;;;;;;6279972;22;11523;-74
2023/05/13 09:11:15;;;;;;;;;63.00;50.25;;;;;;;;6280914;22;8758;-75
2023/05/13 09:13:41;;;;;;;;;57.50;46.25;;;;;;;;6280901;22;8746;-73
2023/05/13 09:16:06;;;;;;;;;61.25;49.75;;;;;;;;6280664;22;8707;-77
2023/05/13 09:18:32;;;;;;;;;53.00;43.50;;;;;;;;6280380;22;11482;-76
2023/05/13 09:20:57;;;;;;;;;53.75;44.00;;;;;;;;6280662;22;8746;-76
2023/05/13 09:23:22;;;;;;;;;64.00;48.50;;;;;;;;6280348;22;8763;-76
2023/05/13 09:25:48;;;;;;;;;57.50;47.00;;;;;;;;6252953;22;8770;-74
2023/05/13 09:28:13;;;;;;;;;55.25;44.50;;;;;;;;6280981;22;8809;-73
2023/05/13 09:30:40;;;;;;;;;58.75;45.25;;;;;;;;6280874;22;8829;-72
2023/05/13 09:33:10;;;;;;;;;60.50;48.50;;;;;;;;6280781;22;8861;-75
2023/05/13 09:35:36;;;;;;;;;57.75;47.00;;;;;;;;6281089;22;12181;-76
2023/05/13 09:38:10;;;;;;;;;59.25;48.00;;;;;;;;6280309;22;11450;-75
2023/05/13 09:40:36;;;;;;;;;52.75;42.50;;;;;;;;6281208;22;11599;-76
2023/05/13 09:43:02;;;;;;;;;60.75;47.50;;;;;;;;6240728;22;49032;-76
2023/05/13 09:45:27;;;;;;;;;60.25;48.25;;;;;;;;6242064;22;48260;-74
2023/05/13 09:47:53;;;;;;;;;57.25;46.50;;;;;;;;6246998;22;42514;-73
2023/05/13 09:50:18;;;;;;;;;55.00;44.75;;;;;;;;6238670;22;48990;-73
2023/05/13 09:52:44;;;;;;;;;55.75;46.25;;;;;;;;6234715;22;49618;-74
2023/05/13 09:55:09;;;;;;;;;53.25;44.75;;;;;;;;6234971;22;49619;-74
2023/05/13 09:57:34;;;;;;;;;52.25;43.75;;;;;;;;6234304;22;49615;-78
2023/05/13 10:00:00;;;;;;;;;59.00;46.00;;;;;;;;6232985;22;49850;-74
2023/05/13 10:02:26;;;;;;;;;51.75;42.75;;;;;;;;6208017;22;49694;-74
2023/05/13 10:04:52;;;;;;;;;61.25;47.50;;;;;;;;6243914;22;48310;-74
2023/05/13 10:07:23;;;;;;;;;56.75;46.50;;;;;;;;6243131;22;48864;-73
2023/05/13 10:09:49;;;;;;;;;50.50;41.25;;;;;;;;6246335;22;48501;-73
2023/05/13 10:12:15;;;;;;;;;52.50;42.50;;;;;;;;6244482;22;49872;-74
2023/05/13 10:14:40;;;;;;;;;47.75;35.00;;;;;;;;6265230;22;31512;-74
2023/05/13 10:17:06;;;;;;;;;52.00;42.75;;;;;;;;6282278;22;8754;-73
2023/05/13 10:19:32;;;;;;;;;51.00;43.75;;;;;;;;6282381;22;8742;-85
2023/05/13 10:21:58;;;;;;;;;55.25;45.75;;;;;;;;6281845;22;8837;-84
2023/05/13 10:24:23;;;;;;;;;54.25;41.75;;;;;;;;6282440;22;8856;-75
2023/05/13 10:26:51;;;;;;;;;45.25;36.50;;;;;;;;6281579;22;8774;-74
2023/05/13 10:29:16;;;;;;;;;50.00;40.00;;;;;;;;6254566;22;8792;-74
2023/05/13 10:31:43;;;;;;;;;50.25;38.75;;;;;;;;6281791;22;12222;-73
2023/05/13 10:34:09;;;;;;;;;53.50;42.75;;;;;;;;6281769;22;8727;-74
2023/05/13 10:36:52;;;;;;;;;54.00;42.25;;;;;;;;6281531;22;11468;-73
2023/05/13 10:39:17;;;;;;;;;55.50;45.75;;;;;;;;6281764;22;11456;-73
2023/05/13 10:41:54;;;;;;;;;56.25;46.00;;;;;;;;6267179;22;30970;-73
2023/05/13 10:44:19;;;;;;;;;53.25;44.00;;;;;;;;6255243;22;35833;-74
2023/05/13 10:46:48;;;;;;;;;50.75;41.25;;;;;;;;6255502;22;31825;-73
2023/05/13 10:49:16;;;;;;;;;54.50;44.50;;;;;;;;6280962;22;8782;-73
2023/05/13 10:51:48;;;;;;;;;54.75;45.25;;;;;;;;6281230;22;11465;-71
2023/05/13 10:54:21;;;;;;;;;53.50;44.25;;;;;;;;6281304;22;11559;-71
2023/05/13 10:56:56;;;;;;;;;55.50;45.50;;;;;;;;6281479;22;11509;-71
2023/05/13 10:59:21;;;;;;;;;55.25;45.25;;;;;;;;6281609;22;11538;-72
2023/05/13 11:01:47;;;;;;;;;47.50;39.00;;;;;;;;6281822;22;11612;-70
2023/05/13 11:04:20;;;;;;;;;51.75;44.00;;;;;;;;6254156;22;8754;-71
2023/05/13 11:06:46;;;;;;;;;50.50;41.00;;;;;;;;6281919;22;8739;-72
2023/05/13 11:09:13;;;;;;;;;53.25;44.25;;;;;;;;6281635;22;11466;-71
2023/05/13 11:11:38;;;;;;;;;55.00;44.25;;;;;;;;6281523;22;11507;-70
2023/05/13 11:14:09;;;;;;;;;48.75;41.50;;;;;;;;6281468;22;11485;-71
2023/05/13 11:16:36;;;;;;;;;50.50;42.50;;;;;;;;6281630;22;8738;-70
2023/05/13 11:19:02;;;;;;;;;54.00;44.25;;;;;;;;6280723;22;11663;-70
2023/05/13 11:21:31;;;;;;;;;49.50;41.75;;;;;;;;6281228;22;11450;-75
2023/05/13 11:23:57;;;;;;;;;52.75;43.50;;;;;;;;6281802;22;11475;-75
2023/05/13 11:26:22;;;;;;;;;50.25;40.25;;;;;;;;6280718;22;11598;-74
2023/05/13 11:28:58;;;;;;;;;52.50;43.00;;;;;;;;6281591;22;11598;-72
2023/05/13 11:31:25;;;;;;;;;56.25;45.25;;;;;;;;6281408;22;8766;-77
2023/05/13 11:34:08;;;;;;;;;52.25;40.25;;;;;;;;6281450;22;11565;-77
2023/05/13 11:36:33;;;;;;;;;53.75;44.25;;;;;;;;6281720;22;11454;-75
2023/05/13 11:39:25;;;;;;;;;52.50;42.75;;;;;;;;6281835;22;12199;-70
2023/05/13 11:41:51;;;;;;;;;50.50;42.00;;;;;;;;6274322;22;8772;-74
2023/05/13 11:44:17;;;;;;;;;54.75;43.75;;;;;;;;6281875;22;11523;-75
2023/05/13 11:46:59;;;;;;;;;62.75;50.75;;;;;;;;6281749;22;13023;-69
2023/05/13 11:49:34;;;;;;;;;62.75;50.50;;;;;;;;6280767;22;11514;-72
2023/05/13 11:52:00;;;;;;;;;52.50;43.75;;;;;;;;6281080;22;11483;-71
2023/05/13 11:54:26;;;;;;;;;55.50;43.00;;;;;;;;6253468;22;11550;-71
2023/05/13 11:56:52;;;;;;;;;53.00;44.25;;;;;;;;6281770;22;11751;-72
2023/05/13 11:59:17;;;;;;;;;52.50;43.50;;;;;;;;6281867;22;8804;-72
2023/05/13 12:01:42;;;;;;;;;48.75;41.75;;;;;;;;6281844;22;8750;-73
2023/05/13 12:04:07;;;;;;;;;50.75;42.50;;;;;;;;6281613;22;8766;-73
2023/05/13 12:06:33;;;;;;;;;48.50;39.00;;;;;;;;6281219;22;8762;-73
2023/05/13 12:09:05;;;;;;;;;50.00;41.75;;;;;;;;6281497;22;8770;-72
2023/05/13 12:11:30;;;;;;;;;53.00;43.00;;;;;;;;6280939;22;8849;-72
2023/05/13 12:13:56;;;;;;;;;43.25;36.00;;;;;;;;6253704;22;11606;-73
2023/05/13 12:16:21;;;;;;;;;47.00;39.50;;;;;;;;6281183;22;8844;-74
2023/05/13 12:19:03;;;;;;;;;62.75;50.00;;;;;;;;6281888;22;8762;-73
2023/05/13 12:21:30;;;;;;;;;64.50;50.00;;;;;;;;6281366;22;8769;-73
2023/05/13 12:23:57;;;;;;;;;48.25;39.00;;;;;;;;6281090;22;11450;-73
2023/05/13 12:26:22;;;;;;;;;33.00;31.50;;;;;;;;6254846;22;12359;-73
2023/05/13 12:28:47;;;;;;;;;51.25;42.25;;;;;;;;6281085;22;11521;-73
2023/05/13 12:31:16;;;;;;;;;69.25;53.75;;;;;;;;6281345;22;8761;-73
2023/05/13 12:33:42;;;;;;;;;41.25;36.50;;;;;;;;6281466;22;8754;-73
2023/05/13 12:36:20;;;;;;;;;42.50;35.00;;;;;;;;6281648;22;12373;-74
2023/05/13 12:38:56;;;;;;;;;37.00;31.50;;;;;;;;6281339;22;11504;-74
2023/05/13 12:41:22;;;;;;;;;59.50;48.50;;;;;;;;6281202;22;11563;-74
2023/05/13 12:43:47;;;;;;;;;45.50;39.00;;;;;;;;6281435;22;10980;-74
2023/05/13 12:46:12;;;;;;;;;82.00;73.67;;;;;;;;6280793;22;11538;-73
2023/05/13 12:48:38;;;;;;;;;39.00;34.50;;;;;;;;6280222;22;8812;-73
2023/05/13 12:51:03;;;;;;;;;34.00;30.50;;;;;;;;6281473;22;8762;-72
2023/05/13 12:53:28;;;;;;;;;30.00;28.00;;;;;;;;6281375;22;8770;-73
2023/05/13 12:55:53;;;;;;;;;19.75;16.00;;;;;;;;6281807;22;8755;-73
2023/05/13 12:58:19;;;;;;;;;26.25;25.75;;;;;;;;6281618;22;8892;-74
2023/05/13 13:00:44;;;;;;;;;23.75;23.00;;;;;;;;6281250;22;8763;-72
2023/05/13 13:03:10;;;;;;;;;28.00;25.75;;;;;;;;6281679;22;8766;-72
2023/05/13 13:05:35;;;;;;;;;28.75;26.00;;;;;;;;6281233;22;8777;-74
2023/05/13 13:08:01;;;;;;;;;19.50;19.50;;;;;;;;6280976;22;8774;-72
2023/05/13 13:10:27;;;;;;;;;24.25;24.25;;;;;;;;6281607;22;8777;-74
2023/05/13 13:12:52;;;;;;;;;26.50;23.50;;;;;;;;6281747;22;8758;-73
2023/05/13 13:15:17;;;;;;;;;26.75;22.75;;;;;;;;6281591;22;8897;-73
2023/05/13 13:17:42;;;;;;;;;22.00;21.50;;;;;;;;6281245;22;8790;-73
2023/05/13 13:20:08;;;;;;;;;23.50;19.50;;;;;;;;6281626;22;8805;-72
2023/05/13 13:22:35;;;;;;;;;23.75;20.50;;;;;;;;6279414;22;8774;-72
2023/05/13 13:25:01;;;;;;;;;20.75;20.00;;;;;;;;6279284;22;8750;-74
2023/05/13 13:27:26;;;;;;;;;17.75;17.00;;;;;;;;6280838;22;10907;-74
2023/05/13 13:29:51;;;;;;;;;17.00;16.25;;;;;;;;6281384;22;8778;-74
2023/05/13 13:32:16;;;;;;;;;17.00;17.00;;;;;;;;6281470;22;8742;-73
2023/05/13 13:34:41;;;;;;;;;20.50;18.75;;;;;;;;6281475;22;8781;-74
2023/05/13 13:37:07;;;;;;;;;11.75;9.75;;;;;;;;6280909;22;8854;-73
2023/05/13 13:39:33;;;;;;;;;18.50;18.25;;;;;;;;6281095;22;8778;-74
2023/05/13 13:41:58;;;;;;;;;16.25;16.25;;;;;;;;6280424;22;8719;-72
2023/05/13 13:44:23;;;;;;;;;14.00;14.00;;;;;;;;6281344;22;11063;-73
2023/05/13 13:46:49;;;;;;;;;18.00;17.00;;;;;;;;6281021;22;8793;-74
2023/05/13 13:49:14;;;;;;;;;14.50;14.00;;;;;;;;6280612;22;8876;-72
2023/05/13 13:51:39;;;;;;;;;11.25;11.25;;;;;;;;6280841;22;8854;-72
2023/05/13 13:54:05;;;;;;;;;11.75;11.75;;;;;;;;6254064;22;8793;-73
2023/05/13 13:56:30;;;;;;;;;13.25;12.00;;;;;;;;6281314;22;9585;-73
2023/05/13 13:58:55;;;;;;;;;15.25;13.25;;;;;;;;6281003;22;8896;-73
2023/05/13 14:01:21;;;;;;;;;12.25;12.25;;;;;;;;6281155;22;8873;-73
2023/05/13 14:03:49;;;;;;;;;15.75;12.25;;;;;;;;6281077;22;8761;-73
2023/05/13 14:06:14;;;;;;;;;6.75;6.75;;;;;;;;6280735;22;10555;-77
2023/05/13 14:08:40;;;;;;;;;15.00;13.75;;;;;;;;6279727;22;10670;-73
2023/05/13 14:11:05;;;;;;;;;14.75;12.00;;;;;;;;6280359;22;8750;-73
2023/05/13 14:13:30;;;;;;;;;9.50;9.25;;;;;;;;6279347;22;8766;-72
2023/05/13 14:15:55;;;;;;;;;9.50;9.50;;;;;;;;6280189;22;8784;-72
2023/05/13 14:18:21;;;;;;;;;12.50;12.50;;;;;;;;6279926;22;8758;-73
2023/05/13 14:20:47;;;;;;;;;13.25;11.50;;;;;;;;6280179;22;8742;-72
2023/05/13 14:23:12;;;;;;;;;10.50;10.50;;;;;;;;6279814;22;8765;-72
2023/05/13 14:25:37;;;;;;;;;17.75;14.25;;;;;;;;6279938;22;10711;-72
2023/05/13 14:28:03;;;;;;;;;73.50;58.25;;;;;;;;6279029;22;8758;-72
2023/05/13 14:30:28;;;;;;;;;44.50;39.00;;;;;;;;6279765;22;8739;-74
2023/05/13 14:32:53;;;;;;;;;66.00;52.75;;;;;;;;6252174;22;8804;-74
2023/05/13 14:35:18;;;;;;;;;98.00;94.67;;;;;;;;6279950;22;8767;-73
2023/05/13 14:37:43;;;;;;;;;40.25;34.25;;;;;;;;6251910;22;10294;-72
2023/05/13 14:40:09;;;;;;;;;81.67;76.00;;;;;;;;6279921;22;8762;-71
2023/05/13 14:42:34;;;;;;;;;14.50;13.00;;;;;;;;6279160;22;9680;-71
2023/05/13 14:44:59;;;;;;;;;44.75;38.00;;;;;;;;6279776;22;8762;-71
2023/05/13 14:47:25;;;;;;;;;36.75;32.75;;;;;;;;6279517;22;8869;-71
2023/05/13 14:49:50;;;;;;;;;41.25;34.50;;;;;;;;6279887;22;8801;-71
2023/05/13 14:52:15;;;;;;;;;65.25;54.25;;;;;;;;6280895;22;8762;-76
2023/05/13 14:54:40;;;;;;;;;16.25;13.75;;;;;;;;6281751;22;8774;-68
2023/05/13 14:57:06;;;;;;;;;15.75;15.25;;;;;;;;6282088;22;9530;-76
2023/05/13 14:59:31;;;;;;;;;16.75;16.75;;;;;;;;6281949;22;8773;-77
2023/05/13 15:01:57;;;;;;;;;11.00;10.75;;;;;;;;6281809;22;9617;-77
2023/05/13 15:04:22;;;;;;;;;7.75;7.75;;;;;;;;6282252;22;8871;-78
2023/05/13 15:06:47;;;;;;;;;11.00;8.25;;;;;;;;6282248;22;8782;-80
2023/05/13 15:09:12;;;;;;;;;13.25;13.25;;;;;;;;6282039;22;9519;-75
2023/05/13 15:11:38;;;;;;;;;11.50;8.50;;;;;;;;6282075;22;8781;-76
2023/05/13 15:14:03;;;;;;;;;15.75;15.50;;;;;;;;6282231;22;8784;-76
2023/05/13 15:16:28;;;;;;;;;11.25;11.25;;;;;;;;6282252;22;10054;-78
2023/05/13 15:18:53;;;;;;;;;17.25;16.50;;;;;;;;6255176;22;8766;-76
2023/05/13 15:21:19;;;;;;;;;20.75;19.00;;;;;;;;6281675;22;8758;-78
2023/05/13 15:23:44;;;;;;;;;16.00;15.75;;;;;;;;6281802;22;8793;-78
2023/05/13 15:26:09;;;;;;;;;19.00;17.00;;;;;;;;6281838;22;8774;-78
2023/05/13 15:28:34;;;;;;;;;17.00;17.00;;;;;;;;6282340;22;8838;-77
2023/05/13 15:30:59;;;;;;;;;19.00;17.50;;;;;;;;6281962;22;8758;-76
2023/05/13 15:33:25;;;;;;;;;15.00;15.00;;;;;;;;6281897;22;8781;-77
2023/05/13 15:35:51;;;;;;;;;21.00;20.75;;;;;;;;6281940;22;8747;-75
2023/05/13 15:38:16;;;;;;;;;17.00;13.25;;;;;;;;6281776;22;9468;-76
2023/05/13 15:40:42;;;;;;;;;18.75;18.75;;;;;;;;6281794;22;8758;-76
2023/05/13 15:43:07;;;;;;;;;20.00;16.50;;;;;;;;6282102;22;8758;-79
2023/05/13 15:45:33;;;;;;;;;20.50;19.25;;;;;;;;6282138;22;8759;-76
2023/05/13 15:47:58;;;;;;;;;21.00;19.75;;;;;;;;6282353;22;8770;-77
2023/05/13 15:50:24;;;;;;;;;25.25;23.75;;;;;;;;6281704;22;8784;-85
2023/05/13 15:52:50;;;;;;;;;22.75;21.25;;;;;;;;6281728;22;8731;-86
2023/05/13 15:55:15;;;;;;;;;19.50;18.00;;;;;;;;6282466;22;10494;-85
2023/05/13 15:57:40;;;;;;;;;21.25;20.50;;;;;;;;6279966;22;9483;-78
2023/05/13 16:00:06;;;;;;;;;19.25;19.25;;;;;;;;6279270;22;8887;-83
2023/05/13 16:02:37;;;;;;;;;20.00;18.00;;;;;;;;6281056;22;8865;-78
2023/05/13 16:05:03;;;;;;;;;18.25;18.00;;;;;;;;6281006;22;10580;-80
2023/05/13 16:07:28;;;;;;;;;20.75;18.00;;;;;;;;6281471;22;10486;-82
2023/05/13 16:09:53;;;;;;;;;20.25;18.00;;;;;;;;6281215;22;8770;-79
2023/05/13 16:12:19;;;;;;;;;18.75;18.50;;;;;;;;6281022;22;8758;-78
2023/05/13 16:14:44;;;;;;;;;21.75;21.75;;;;;;;;6281030;22;8755;-81
2023/05/13 16:17:10;;;;;;;;;18.25;17.25;;;;;;;;6282508;22;8750;-85
2023/05/13 16:19:35;;;;;;;;;23.50;19.50;;;;;;;;6282902;22;8766;-91
2023/05/13 16:22:20;;;;;;;;;18.00;17.50;;;;;;;;6281663;22;8773;-83
2023/05/13 16:24:45;;;;;;;;;18.50;18.50;;;;;;;;6281481;22;8749;-79
2023/05/13 16:27:10;;;;;;;;;20.00;18.50;;;;;;;;6281548;22;10813;-80
2023/05/13 16:29:36;;;;;;;;;25.75;23.25;;;;;;;;6281566;22;8793;-81
2023/05/13 16:32:02;;;;;;;;;18.50;16.50;;;;;;;;6281475;22;10148;-81
2023/05/13 16:34:28;;;;;;;;;19.25;19.25;;;;;;;;6281481;22;10911;-81
2023/05/13 16:36:53;;;;;;;;;17.50;17.25;;;;;;;;6281511;22;8694;-81
2023/05/13 16:39:18;;;;;;;;;22.00;21.00;;;;;;;;6281372;22;10831;-81
2023/05/13 16:41:44;;;;;;;;;25.75;23.00;;;;;;;;6282029;22;8785;-87
2023/05/13 16:44:10;;;;;;;;;20.75;20.75;;;;;;;;6282662;22;8718;-85
2023/05/13 16:46:35;;;;;;;;;24.75;24.75;;;;;;;;6254231;22;11992;-84
2023/05/13 16:49:00;;;;;;;;;22.25;21.00;;;;;;;;6281955;22;8798;-84
2023/05/13 16:51:25;;;;;;;;;14.25;14.00;;;;;;;;6282257;22;8798;-87
2023/05/13 16:53:50;;;;;;;;;12.00;10.00;;;;;;;;6253597;22;8762;-78
2023/05/13 16:56:16;;;;;;;;;10.50;9.00;;;;;;;;6282084;22;8762;-78
2023/05/13 16:58:41;;;;;;;;;11.00;10.50;;;;;;;;6281560;22;8801;-82
2023/05/13 17:01:06;;;;;;;;;12.50;12.50;;;;;;;;6282064;22;8773;-79
2023/05/13 17:03:31;;;;;;;;;9.00;9.00;;;;;;;;6282199;22;8762;-80
2023/05/13 17:05:56;;;;;;;;;10.75;9.25;;;;;;;;6281722;22;8868;-79
2023/05/13 17:08:23;;;;;;;;;12.50;11.00;;;;;;;;6281583;22;8798;-78
2023/05/13 17:10:48;;;;;;;;;14.50;13.50;;;;;;;;6281335;22;8739;-78
2023/05/13 17:13:13;;;;;;;;;10.75;10.75;;;;;;;;6281511;22;10801;-77
2023/05/13 17:15:38;;;;;;;;;11.25;11.25;;;;;;;;6279427;22;8762;-79
2023/05/13 17:18:04;;;;;;;;;13.25;12.00;;;;;;;;6281367;22;8758;-81
2023/05/13 17:20:29;;;;;;;;;10.00;10.00;;;;;;;;6281228;22;8843;-79
2023/05/13 17:22:54;;;;;;;;;9.50;9.25;;;;;;;;6281325;22;8750;-81
2023/05/13 17:25:19;;;;;;;;;7.75;7.75;;;;;;;;6253813;22;8778;-77
2023/05/13 17:27:44;;;;;;;;;8.75;8.00;;;;;;;;6281174;22;8797;-75
2023/05/13 17:30:10;;;;;;;;;10.50;10.50;;;;;;;;6280921;22;8798;-77
2023/05/13 17:32:35;;;;;;;;;7.75;7.75;;;;;;;;6281614;22;8755;-79
2023/05/13 17:35:01;;;;;;;;;11.50;10.25;;;;;;;;6281679;22;8766;-80
2023/05/13 17:37:26;;;;;;;;;17.00;13.50;;;;;;;;6281638;22;9531;-84
2023/05/13 17:39:51;;;;;;;;;13.50;13.00;;;;;;;;6282173;22;8875;-79
2023/05/13 17:42:16;;;;;;;;;11.00;11.00;;;;;;;;6254239;22;8743;-83
2023/05/13 17:44:42;;;;;;;;;11.25;11.25;;;;;;;;6281484;22;8738;-79
2023/05/13 17:47:07;;;;;;;;;10.00;10.00;;;;;;;;6281848;22;8777;-78
2023/05/13 17:49:32;;;;;;;;;16.25;13.50;;;;;;;;6281982;22;8864;-80
2023/05/13 17:51:57;;;;;;;;;11.75;11.75;;;;;;;;6254519;22;8759;-85
2023/05/13 17:54:23;;;;;;;;;14.00;14.00;;;;;;;;6283050;22;8758;-90
2023/05/13 17:56:49;;;;;;;;;14.00;13.50;;;;;;;;6255059;22;8895;-83
2023/05/13 17:59:14;;;;;;;;;9.50;8.75;;;;;;;;6283645;22;8742;-91
2023/05/13 18:01:39;;;;;;;;;10.25;8.00;;;;;;;;6285764;22;10920;-85
2023/05/13 18:04:05;;;;;;;;;12.25;12.00;;;;;;;;6285418;22;8750;-92
2023/05/13 18:06:30;;;;;;;;;12.75;12.75;;;;;;;;6282021;22;8770;-78
2023/05/13 18:08:55;;;;;;;;;14.25;14.25;;;;;;;;6280711;22;8794;-80
2023/05/13 18:11:20;;;;;;;;;12.75;12.25;;;;;;;;6280906;22;9777;-78
2023/05/13 18:13:46;;;;;;;;;13.50;13.50;;;;;;;;6280841;22;8914;-71
2023/05/13 18:16:12;;;;;;;;;11.50;11.00;;;;;;;;6280907;22;8904;-72
2023/05/13 18:18:37;;;;;;;;;14.25;14.25;;;;;;;;6280366;22;8785;-74
2023/05/13 18:21:02;;;;;;;;;16.75;16.50;;;;;;;;6280223;22;11020;-73
2023/05/13 18:23:27;;;;;;;;;14.25;14.25;;;;;;;;6280918;22;9468;-74
2023/05/13 18:25:53;;;;;;;;;13.00;13.00;;;;;;;;6280210;22;8774;-75
2023/05/13 18:28:18;;;;;;;;;15.25;15.25;;;;;;;;6253125;22;8963;-76
2023/05/13 18:30:43;;;;;;;;;16.25;14.75;;;;;;;;6281849;22;8735;-75
2023/05/13 18:33:08;;;;;;;;;16.00;16.00;;;;;;;;6281995;22;8825;-76
2023/05/13 18:35:33;;;;;;;;;12.25;12.00;;;;;;;;6281512;22;8766;-76
2023/05/13 18:37:58;;;;;;;;;17.25;16.00;;;;;;;;6282510;22;8782;-74
2023/05/13 18:40:24;;;;;;;;;16.00;15.25;;;;;;;;6282168;22;8755;-76
2023/05/13 18:42:49;;;;;;;;;14.25;14.00;;;;;;;;6282494;22;8774;-76
2023/05/13 18:45:15;;;;;;;;;13.25;12.75;;;;;;;;6281696;22;9553;-76
2023/05/13 18:47:40;;;;;;;;;15.00;15.00;;;;;;;;6279317;22;8863;-75
2023/05/13 18:50:05;;;;;;;;;11.75;11.75;;;;;;;;6280737;22;8801;-76
2023/05/13 18:52:30;;;;;;;;;16.00;15.50;;;;;;;;6282100;22;8766;-75
2023/05/13 18:54:56;;;;;;;;;14.25;13.50;;;;;;;;6280905;22;8766;-76
2023/05/13 18:57:22;;;;;;;;;15.75;14.25;;;;;;;;6280141;22;8766;-75
2023/05/13 18:59:47;;;;;;;;;15.00;14.75;;;;;;;;6280774;22;8743;-75
2023/05/13 19:02:13;;;;;;;;;14.00;14.00;;;;;;;;6281145;22;12484;-77
2023/05/13 19:04:38;;;;;;;;;22.25;21.25;;;;;;;;6280815;22;9055;-78
2023/05/13 19:07:03;;;;;;;;;15.75;15.75;;;;;;;;6281194;22;8856;-78
2023/05/13 19:09:28;;;;;;;;;14.00;14.00;;;;;;;;6280804;22;8786;-77
2023/05/13 19:11:54;;;;;;;;;15.75;15.00;;;;;;;;6281205;22;8892;-77
2023/05/13 19:14:19;;;;;;;;;13.25;13.00;;;;;;;;6281510;22;8872;-78
2023/05/13 19:16:45;;;;;;;;;14.00;13.00;;;;;;;;6281233;22;9434;-78
2023/05/13 19:19:13;;;;;;;;;13.00;13.00;;;;;;;;6280983;22;8723;-77
2023/05/13 19:21:39;;;;;;;;;16.50;14.50;;;;;;;;6281194;22;12210;-77
2023/05/13 19:24:04;;;;;;;;;14.75;14.75;;;;;;;;6280866;22;11387;-78
2023/05/13 19:26:30;;;;;;;;;20.50;20.50;;;;;;;;6280371;22;8872;-77
2023/05/13 19:28:55;;;;;;;;;14.50;14.00;;;;;;;;6280723;22;8778;-77
2023/05/13 19:31:20;;;;;;;;;14.75;14.25;;;;;;;;6280035;22;9548;-77
2023/05/13 19:33:46;;;;;;;;;15.50;15.50;;;;;;;;6280278;22;9487;-77
2023/05/13 19:36:11;;;;;;;;;16.75;16.75;;;;;;;;6280994;22;8763;-77
2023/05/13 19:38:36;;;;;;;;;15.75;15.75;;;;;;;;6280979;22;8750;-77
2023/05/13 19:41:02;;;;;;;;;14.50;14.50;;;;;;;;6280342;22;8730;-75
2023/05/13 19:43:27;;;;;;;;;16.75;14.75;;;;;;;;6252689;22;9262;-76
2023/05/13 19:45:55;;;;;;;;;20.50;19.75;;;;;;;;6280438;22;8770;-76
2023/05/13 19:48:20;;;;;;;;;19.25;18.00;;;;;;;;6281001;22;8855;-76
2023/05/13 19:50:45;;;;;;;;;17.25;16.00;;;;;;;;6280550;22;11395;-78
2023/05/13 19:53:11;;;;;;;;;21.25;20.75;;;;;;;;6280468;22;8754;-76
2023/05/13 19:55:36;;;;;;;;;18.75;18.75;;;;;;;;6280703;22;8834;-78
2023/05/13 19:58:01;;;;;;;;;22.25;20.75;;;;;;;;6281060;22;8787;-75
2023/05/13 20:00:27;;;;;;;;;31.75;30.75;;;;;;;;6253345;22;8762;-76
2023/05/13 20:02:52;;;;;;;;;29.00;27.00;;;;;;;;6253130;22;8883;-76
2023/05/13 20:05:17;;;;;;;;;33.00;30.00;;;;;;;;6281249;22;9959;-77
2023/05/13 20:07:42;;;;;;;;;32.25;26.25;;;;;;;;6280998;22;8766;-76
2023/05/13 20:10:08;;;;;;;;;33.25;31.00;;;;;;;;6280730;22;8778;-76
2023/05/13 20:12:33;;;;;;;;;39.75;32.00;;;;;;;;6280087;22;8754;-78
2023/05/13 20:14:59;;;;;;;;;37.75;32.50;;;;;;;;6279569;22;8788;-77
2023/05/13 20:17:24;;;;;;;;;35.50;33.25;;;;;;;;6279864;22;8734;-77
2023/05/13 20:19:50;;;;;;;;;33.00;31.50;;;;;;;;6280205;22;8754;-76
2023/05/13 20:22:16;;;;;;;;;16.75;16.75;;;;;;;;6280764;22;8773;-79
2023/05/13 20:24:41;;;;;;;;;27.25;27.25;;;;;;;;6280852;22;8727;-79
2023/05/13 20:27:07;;;;;;;;;25.25;22.50;;;;;;;;6264207;22;11547;-77
2023/05/13 20:29:33;;;;;;;;;29.00;27.25;;;;;;;;6280740;22;8778;-77
2023/05/13 20:31:59;;;;;;;;;28.75;28.75;;;;;;;;6280388;22;8731;-69
2023/05/13 20:34:25;;;;;;;;;22.75;22.50;;;;;;;;6280701;22;12300;-72
2023/05/13 20:36:50;;;;;;;;;24.50;23.25;;;;;;;;6280539;22;8747;-69
2023/05/13 20:39:15;;;;;;;;;26.25;24.25;;;;;;;;6272344;22;8770;-70
2023/05/13 20:41:40;;;;;;;;;25.00;24.50;;;;;;;;6274342;22;8754;-70
2023/05/13 20:44:05;;;;;;;;;10.75;9.75;;;;;;;;6280455;22;8785;-70
2023/05/13 20:46:31;;;;;;;;;21.25;19.50;;;;;;;;6280277;22;8758;-70
2023/05/13 20:48:56;;;;;;;;;17.50;17.25;;;;;;;;6278712;22;8971;-70
2023/05/13 20:51:21;;;;;;;;;22.25;21.00;;;;;;;;6278669;22;8762;-70
2023/05/13 20:53:46;;;;;;;;;18.00;16.25;;;;;;;;6279178;22;8762;-73
